Flight Track Log - Related Links

Times and Time Zones

All times are in EDT time to prevent confusion due to time zone crossing. See the N53NW flight status page for this flight to view local times or setup timezone preferences in your user account.

Time Position Orientation Groundspeed Altitude Reporting Facility
EDT Latitude Longitude Course Direction KTS MPH feet Rate Location/Type
Fri 02:31:48 PM 29.5153 -98.4528 130° Southeast 192 221 2,000  Level Houston Center
Fri 02:32:20 PM 29.4956 -98.4256 130° Southeast 208 239 3,400 2,556 Climbing Houston Center
Fri 02:32:42 PM 29.4772 -98.4022 132° Southeast 247 284 4,300 2,710 Climbing Houston Center
Fri 02:33:22 PM 29.4522 -98.3636 127° Southeast 243 280 6,200 3,164 Climbing Houston Center
Fri 02:33:37 PM 29.4439 -98.3389 111° Southeast 268 308 7,200 3,000 Climbing Houston Center
Fri 02:34:24 PM 29.4803 -98.3006 43° Northeast 265 305 9,300 2,455 Climbing Houston Center
Fri 02:34:43 PM 29.5000 -98.3083 341° North 267 307 9,900 2,226 Climbing Houston Center
Fri 02:35:26 PM 29.5378 -98.3592 311° West 268 308 11,600 1,881 Climbing Houston Center
Fri 02:35:50 PM 29.5575 -98.3853 311° West 275 316 12,000 387 Climbing Houston Center
Fri 02:36:28 PM 29.5897 -98.4292 310° West 290 334 12,000  Level Houston Center
Fri 02:36:45 PM 29.6078 -98.4514 313° West 317 365 12,000 774 Level Houston Center
Fri 02:37:30 PM 29.6669 -98.4589 354° North 325 374 12,800 897 Climbing Houston Center
Fri 02:38:32 PM 29.7639 -98.4450 North 328 377 13,600 1,440 Climbing Houston Center
Fri 02:39:35 PM 29.8636 -98.4303 North 334 384 15,800 2,016 Climbing Houston Center
Fri 02:40:37 PM 29.9569 -98.4167 North 336 387 17,800 1,984 Climbing Houston Center
Fri 02:41:39 PM 30.0586 -98.4017 North 341 392 19,900 2,032 Climbing Houston Center
Fri 02:42:41 PM 30.1514 -98.3875 North 337 388 22,000 2,032 Climbing Houston Center
Fri 02:43:43 PM 30.2506 -98.3725 North 334 384 24,100 1,645 Climbing Houston Center
Fri 02:44:45 PM 30.3333 -98.3592 North 341 392 25,400 1,258 Climbing Houston Center
Fri 02:45:47 PM 30.4364 -98.3458 North 360 414 26,700 1,296 Climbing Houston Center
Fri 02:46:50 PM 30.5656 -98.3261 North 388 447 28,100 1,248 Climbing Houston Center
Fri 02:47:52 PM 30.6806 -98.3092 North 405 466 29,300 1,161 Climbing Houston Center
Fri 02:48:54 PM 30.7958 -98.2933 North 410 472 30,500 1,210 Climbing Houston Center
Fri 02:49:56 PM 30.9122 -98.2753 North 414 476 31,800 1,161 Climbing Houston Center
Fri 02:50:58 PM 31.0281 -98.2578 North 412 474 32,900 1,065 Climbing Houston Center
Fri 02:52:00 PM 31.1453 -98.2406 North 416 479 34,000 1,016 Climbing Houston Center
Fri 02:53:02 PM 31.2631 -98.2231 North 419 482 35,000 968 Climbing Houston Center
Fri 02:54:04 PM 31.3800 -98.2050 North 418 481 36,000 1,029 Climbing Houston Center
Fri 02:55:22 PM 31.5344 -98.1811 North 424 488 37,400 1,043 Climbing Fort Worth Center
Fri 02:56:22 PM 31.6600 -98.1431 14° North 419 482 38,400 1,000 Climbing Fort Worth Center
Fri 02:57:22 PM 31.7586 -98.0658 34° Northeast 425 489 39,400 1,050 Climbing Fort Worth Center
Fri 02:58:22 PM 31.8675 -97.9833 33° Northeast 436 502 40,500 800 Climbing Fort Worth Center
Fri 02:59:22 PM 31.9639 -97.9056 34° Northeast 441 507 41,000 250 Climbing Fort Worth Center
Fri 03:00:22 PM 32.0706 -97.8253 33° Northeast 441 507 41,000  Level Fort Worth Center
Fri 03:01:22 PM 32.1817 -97.7375 34° Northeast 454 522 41,000  Level Fort Worth Center
Fri 03:02:22 PM 32.2903 -97.6517 34° Northeast 467 537 41,000  Level Fort Worth Center
Fri 03:03:22 PM 32.4033 -97.5661 33° Northeast 467 537 41,000  Level Fort Worth Center
Fri 03:04:22 PM 32.5119 -97.4800 34° Northeast 467 537 41,000  Level Fort Worth Center
Fri 03:05:22 PM 32.6247 -97.3911 34° Northeast 467 537 41,000  Level Fort Worth Center
Fri 03:06:22 PM 32.7331 -97.3022 35° Northeast 472 543 41,000  Level Fort Worth Center
Fri 03:07:22 PM 32.8353 -97.2231 33° Northeast 472 543 41,000  Level Fort Worth Center
Fri 03:08:22 PM 32.9667 -97.1483 26° Northeast 478 550 41,000  Level Fort Worth Center
Fri 03:09:22 PM 33.0836 -97.1011 19° North 470 541 41,000  Level Fort Worth Center
Fri 03:10:22 PM 33.2044 -97.0533 18° North 465 535 41,000  Level Fort Worth Center
Fri 03:11:22 PM 33.3233 -97.0058 18° North 460 529 41,000  Level Fort Worth Center
Fri 03:12:22 PM 33.4461 -96.9553 19° North 460 529 41,000  Level Fort Worth Center
Fri 03:13:22 PM 33.5672 -96.9050 19° North 460 529 41,000  Level Fort Worth Center
Fri 03:14:22 PM 33.6881 -96.8542 19° North 460 529 41,000  Level Fort Worth Center
Fri 03:15:22 PM 33.8108 -96.8036 19° North 460 529 41,000  Level Fort Worth Center
Fri 03:16:22 PM 33.9336 -96.7525 19° North 460 529 41,000  Level Fort Worth Center
Fri 03:17:22 PM 34.0544 -96.7042 18° North 460 529 41,000  Level Fort Worth Center
Fri 03:18:22 PM 34.1814 -96.6528 19° North 451 519 41,000  Level Fort Worth Center
Fri 03:19:22 PM 34.3022 -96.6014 19° North 451 519 41,000  Level Fort Worth Center
Fri 03:20:22 PM 34.4250 -96.5500 19° North 451 519 41,000  Level Fort Worth Center
Fri 03:21:22 PM 34.5456 -96.4983 19° North 451 519 41,000  Level Fort Worth Center
Fri 03:22:22 PM 34.6661 -96.4467 19° North 451 519 41,000  Level Fort Worth Center
Fri 03:23:22 PM 34.7869 -96.3947 19° North 451 519 41,000  Level Fort Worth Center
Fri 03:24:22 PM 34.9094 -96.3450 18° North 451 519 41,000  Level Fort Worth Center
Fri 03:25:22 PM 35.0300 -96.2928 20° North 451 519 41,000  Level Fort Worth Center
Fri 03:26:22 PM 35.1483 -96.2431 19° North 451 519 41,000  Level Fort Worth Center
Fri 03:27:22 PM 35.2603 -96.1728 27° Northeast 451 519 41,000  Level Fort Worth Center
Fri 03:28:22 PM 35.3531 -96.0519 47° Northeast 457 526 41,000  Level Fort Worth Center
Fri 03:29:22 PM 35.4353 -95.9436 47° Northeast 464 534 41,000  Level Fort Worth Center
Fri 03:30:22 PM 35.5297 -95.8269 45° Northeast 469 540 41,000  Level Fort Worth Center
Fri 03:32:38 PM 35.7311 -95.5561 47° Northeast 482 555 41,000  Level Kansas City Center
Fri 03:33:40 PM 35.8397 -95.4117 47° Northeast 482 555 41,000  Level Kansas City Center
Fri 03:34:42 PM 35.9319 -95.2903 47° Northeast 483 556 41,000  Level Kansas City Center
Fri 03:35:44 PM 36.0219 -95.1683 48° Northeast 484 557 41,000  Level Kansas City Center
Fri 03:36:46 PM 36.1133 -95.0475 47° Northeast 485 558 41,000  Level Kansas City Center
Fri 03:37:48 PM 36.2031 -94.9258 48° Northeast 484 557 41,000  Level Kansas City Center
Fri 03:38:50 PM 36.3111 -94.7806 47° Northeast 481 554 41,000  Level Kansas City Center
Fri 03:39:52 PM 36.4014 -94.6592 47° Northeast 481 554 41,000  Level Kansas City Center
Fri 03:40:54 PM 36.4911 -94.5383 47° Northeast 479 551 41,000  Level Kansas City Center
Fri 03:41:56 PM 36.5794 -94.4164 48° Northeast 476 548 41,000  Level Kansas City Center
Fri 03:42:58 PM 36.6669 -94.2964 48° Northeast 472 543 41,000 -48 Level Kansas City Center
Fri 03:44:01 PM 36.7564 -94.1750 47° Northeast 473 544 40,900 -624 Descending Kansas City Center
Fri 03:45:03 PM 36.8628 -94.0267 48° Northeast 477 549 39,700 -1,065 Descending Kansas City Center
Fri 03:46:05 PM 36.9503 -93.9014 49° Northeast 478 550 38,700 -968 Descending Kansas City Center
Fri 03:47:07 PM 37.0378 -93.7792 48° Northeast 474 545 37,700 -1,016 Descending Kansas City Center
Fri 03:48:09 PM 37.1289 -93.6506 48° Northeast 473 544 36,600 -1,016 Descending Kansas City Center
Fri 03:49:11 PM 37.2181 -93.5244 48° Northeast 479 551 35,600 -774 Descending Kansas City Center
Fri 03:50:13 PM 37.3153 -93.3964 46° Northeast 498 573 35,000 -290 Descending Kansas City Center
Fri 03:51:15 PM 37.4106 -93.2689 47° Northeast 499 574 35,000  Level Kansas City Center
Fri 03:52:17 PM 37.5122 -93.1514 42° Northeast 496 571 35,000  Level Kansas City Center
Fri 03:53:19 PM 37.6367 -93.0117 42° Northeast 495 570 35,000 -194 Level Kansas City Center
Fri 03:54:21 PM 37.7356 -92.8903 44° Northeast 494 568 34,600 -1,113 Descending Kansas City Center
Fri 03:55:23 PM 37.8367 -92.7717 43° Northeast 492 566 32,700 -1,790 Descending Kansas City Center
Fri 03:56:25 PM 37.9394 -92.6475 44° Northeast 501 577 30,900 -1,645 Descending Kansas City Center
Fri 03:57:27 PM 38.0436 -92.5269 42° Northeast 505 581 29,300 -1,548 Descending Kansas City Center
Fri 03:58:29 PM 38.1428 -92.4094 43° Northeast 499 574 27,700 -1,597 Descending Kansas City Center
Fri 03:59:31 PM 38.2458 -92.2864 43° Northeast 480 552 26,000 -1,597 Descending Kansas City Center
Fri 04:00:33 PM 38.3356 -92.1772 44° Northeast 455 524 24,400 -1,584 Descending Kansas City Center
Fri 04:01:36 PM 38.4236 -92.0694 44° Northeast 441 507 22,700 -1,584 Descending Kansas City Center
Fri 04:02:38 PM 38.5111 -91.9653 43° Northeast 432 497 21,100 -1,597 Descending Kansas City Center
Fri 04:03:40 PM 38.6103 -91.8433 44° Northeast 416 479 19,400 -1,355 Descending Kansas City Center
Fri 04:04:42 PM 38.6872 -91.7442 45° Northeast 399 459 18,300 -1,065 Descending Kansas City Center
Fri 04:05:44 PM 38.6928 -91.5994 87° East 399 459 17,200 -1,113 Descending Kansas City Center
Fri 04:06:46 PM 38.6933 -91.4636 90° East 386 444 16,000 -1,065 Descending Kansas City Center
Fri 04:07:48 PM 38.6933 -91.3297 90° East 359 413 15,000 -484 Descending Kansas City Center
Fri 04:08:50 PM 38.6939 -91.2058 90° East 350 403 15,000 -532 Level Kansas City Center
Fri 04:09:52 PM 38.6942 -91.0803 90° East 353 406 13,900 -1,258 Descending Kansas City Center
Fri 04:10:54 PM 38.6944 -90.9608 90° East 342 394 12,400 -1,452 Descending Kansas City Center
Fri 04:11:56 PM 38.6997 -90.8489 87° East 325 374 10,900 -1,452 Descending Kansas City Center
Fri 04:12:58 PM 38.7053 -90.7422 86° East 308 354 9,400 -1,403 Descending Kansas City Center
Fri 04:14:00 PM 38.7097 -90.6247 87° East 282 325 8,000 -677 Descending Kansas City Center
Fri 04:15:02 PM 38.7136 -90.5364 87° East 257 296 8,000 -581 Level Kansas City Center
Fri 04:16:04 PM 38.6928 -90.4547 108° East 252 290 6,800 -1,258 Descending Kansas City Center
Fri 04:17:06 PM 38.6575 -90.3833 122° Southeast 250 288 5,400 -1,500 Descending Kansas City Center
Fri 04:18:08 PM 38.6225 -90.2953 117° Southeast 243 280 3,700 -871 Descending Kansas City Center
Fri 04:19:10 PM 38.6181 -90.2278 95° East 229 264 3,600 -672 Descending Kansas City Center
Fri 04:20:13 PM 38.6714 -90.2106 14° North 213 245 2,300 -720 Descending Kansas City Center
Fri 04:21:15 PM 38.6994 -90.2603 306° West 190 219 2,100 -484 Descending Kansas City Center
Fri 04:22:17 PM 38.7228 -90.3081 302° West 152 175 1,300 -677 Descending Kansas City Center
Fri 04:23:19 PM 38.7392 -90.3397 304° West 125 144 700 -581 Descending Kansas City Center

Login

Don't have an account? Register now (free) for customized features, flight alerts, and more!